sensor_id;sensor_type;location;lat;lon;timestamp;pressure;altitude;pressure_sealevel;temperature;humidity
33781;BME280;20097;50.832;19.100;2023-07-31T00:04:04;97845.13;;;17.62;100.00
33781;BME280;20097;50.832;19.100;2023-07-31T00:09:09;97851.41;;;17.61;100.00
33781;BME280;20097;50.832;19.100;2023-07-31T00:14:13;97852.22;;;17.62;100.00
33781;BME280;20097;50.832;19.100;2023-07-31T00:19:19;97859.69;;;17.53;100.00
33781;BME280;20097;50.832;19.100;2023-07-31T00:24:23;97864.50;;;17.45;100.00
33781;BME280;20097;50.832;19.100;2023-07-31T00:29:27;97870.50;;;17.34;100.00
33781;BME280;20097;50.832;19.100;2023-07-31T00:34:34;97858.91;;;17.23;100.00
33781;BME280;20097;50.832;19.100;2023-07-31T00:39:38;97860.38;;;17.19;100.00
33781;BME280;20097;50.832;19.100;2023-07-31T00:44:43;97866.56;;;17.13;100.00
33781;BME280;20097;50.832;19.100;2023-07-31T00:49:49;97868.72;;;17.05;100.00
33781;BME280;20097;50.832;19.100;2023-07-31T00:54:54;97877.41;;;16.94;100.00
33781;BME280;20097;50.832;19.100;2023-07-31T00:59:58;97882.53;;;16.89;100.00
33781;BME280;20097;50.832;19.100;2023-07-31T01:05:05;97886.66;;;16.85;100.00
33781;BME280;20097;50.832;19.100;2023-07-31T01:10:15;97890.56;;;16.94;100.00
33781;BME280;20097;50.832;19.100;2023-07-31T01:15:21;97890.06;;;16.85;100.00
33781;BME280;20097;50.832;19.100;2023-07-31T01:20:28;97893.31;;;16.87;100.00
33781;BME280;20097;50.832;19.100;2023-07-31T01:25:53;97894.06;;;16.76;100.00
33781;BME280;20097;50.832;19.100;2023-07-31T01:31:00;97895.28;;;16.74;100.00
33781;BME280;20097;50.832;19.100;2023-07-31T01:36:08;97899.50;;;16.63;100.00
33781;BME280;20097;50.832;19.100;2023-07-31T01:41:13;97910.31;;;16.73;100.00
33781;BME280;20097;50.832;19.100;2023-07-31T01:46:18;97908.22;;;16.64;100.00
33781;BME280;20097;50.832;19.100;2023-07-31T01:51:22;97904.41;;;16.60;100.00
33781;BME280;20097;50.832;19.100;2023-07-31T01:56:28;97909.75;;;16.53;100.00
33781;BME280;20097;50.832;19.100;2023-07-31T02:01:32;97905.38;;;16.47;100.00
33781;BME280;20097;50.832;19.100;2023-07-31T02:06:39;97906.28;;;16.53;100.00
33781;BME280;20097;50.832;19.100;2023-07-31T02:11:45;97903.34;;;16.42;100.00
33781;BME280;20097;50.832;19.100;2023-07-31T02:16:49;97905.03;;;16.37;100.00
33781;BME280;20097;50.832;19.100;2023-07-31T02:21:55;97905.47;;;16.34;100.00
33781;BME280;20097;50.832;19.100;2023-07-31T02:27:00;97920.75;;;16.25;100.00
33781;BME280;20097;50.832;19.100;2023-07-31T02:32:05;97923.91;;;16.16;100.00
33781;BME280;20097;50.832;19.100;2023-07-31T02:37:11;97925.13;;;16.13;100.00
33781;BME280;20097;50.832;19.100;2023-07-31T02:42:17;97932.78;;;16.15;100.00
33781;BME280;20097;50.832;19.100;2023-07-31T02:47:22;97936.47;;;16.14;100.00
33781;BME280;20097;50.832;19.100;2023-07-31T02:52:26;97939.09;;;16.14;100.00
33781;BME280;20097;50.832;19.100;2023-07-31T02:57:32;97926.97;;;16.13;100.00
33781;BME280;20097;50.832;19.100;2023-07-31T03:02:36;97930.16;;;16.15;100.00
33781;BME280;20097;50.832;19.100;2023-07-31T03:07:41;97935.31;;;16.10;100.00
33781;BME280;20097;50.832;19.100;2023-07-31T03:12:48;97937.66;;;16.18;100.00
33781;BME280;20097;50.832;19.100;2023-07-31T03:17:52;97939.31;;;16.12;100.00
33781;BME280;20097;50.832;19.100;2023-07-31T03:22:56;97949.19;;;16.17;100.00
33781;BME280;20097;50.832;19.100;2023-07-31T03:28:02;97946.19;;;16.13;100.00
33781;BME280;20097;50.832;19.100;2023-07-31T03:33:07;97956.56;;;16.08;100.00
33781;BME280;20097;50.832;19.100;2023-07-31T03:38:11;97958.78;;;16.11;100.00
33781;BME280;20097;50.832;19.100;2023-07-31T03:43:17;97962.41;;;16.10;100.00
33781;BME280;20097;50.832;19.100;2023-07-31T03:48:21;97964.44;;;16.08;100.00
33781;BME280;20097;50.832;19.100;2023-07-31T03:53:25;97972.56;;;16.07;100.00
33781;BME280;20097;50.832;19.100;2023-07-31T03:58:31;97981.88;;;16.09;100.00
33781;BME280;20097;50.832;19.100;2023-07-31T04:03:35;97985.06;;;16.18;100.00
33781;BME280;20097;50.832;19.100;2023-07-31T04:08:39;97991.47;;;16.22;100.00
33781;BME280;20097;50.832;19.100;2023-07-31T04:13:45;97992.25;;;16.29;100.00
33781;BME280;20097;50.832;19.100;2023-07-31T04:18:49;97995.03;;;16.34;100.00
33781;BME280;20097;50.832;19.100;2023-07-31T04:23:54;97996.41;;;16.36;100.00
33781;BME280;20097;50.832;19.100;2023-07-31T04:29:00;98002.72;;;16.35;100.00
33781;BME280;20097;50.832;19.100;2023-07-31T04:34:04;98012.16;;;16.43;100.00
33781;BME280;20097;50.832;19.100;2023-07-31T04:39:08;98010.31;;;16.50;100.00
33781;BME280;20097;50.832;19.100;2023-07-31T04:44:14;98012.72;;;16.52;100.00
33781;BME280;20097;50.832;19.100;2023-07-31T04:49:18;98009.88;;;16.53;100.00
33781;BME280;20097;50.832;19.100;2023-07-31T04:54:23;98000.06;;;16.60;100.00
33781;BME280;20097;50.832;19.100;2023-07-31T04:59:31;97998.53;;;16.71;100.00
33781;BME280;20097;50.832;19.100;2023-07-31T05:04:35;97991.00;;;16.74;100.00
33781;BME280;20097;50.832;19.100;2023-07-31T05:09:39;97990.03;;;16.87;100.00
33781;BME280;20097;50.832;19.100;2023-07-31T05:14:45;97997.56;;;17.01;100.00
33781;BME280;20097;50.832;19.100;2023-07-31T05:19:49;97999.19;;;17.02;100.00
33781;BME280;20097;50.832;19.100;2023-07-31T05:24:54;98009.66;;;17.09;100.00
33781;BME280;20097;50.832;19.100;2023-07-31T05:30:00;98009.59;;;16.97;100.00
33781;BME280;20097;50.832;19.100;2023-07-31T05:35:06;98009.50;;;17.22;100.00
33781;BME280;20097;50.832;19.100;2023-07-31T05:40:11;98010.84;;;17.42;100.00
33781;BME280;20097;50.832;19.100;2023-07-31T05:45:17;98014.84;;;17.63;100.00
33781;BME280;20097;50.832;19.100;2023-07-31T05:50:22;98014.88;;;17.74;100.00
33781;BME280;20097;50.832;19.100;2023-07-31T05:55:26;98003.66;;;17.91;100.00
33781;BME280;20097;50.832;19.100;2023-07-31T06:00:32;98011.50;;;18.09;100.00
33781;BME280;20097;50.832;19.100;2023-07-31T06:05:37;98011.03;;;18.23;100.00
33781;BME280;20097;50.832;19.100;2023-07-31T06:10:41;98014.75;;;18.34;100.00
33781;BME280;20097;50.832;19.100;2023-07-31T06:15:47;98015.25;;;18.54;100.00
33781;BME280;20097;50.832;19.100;2023-07-31T06:20:51;98012.31;;;18.78;100.00
33781;BME280;20097;50.832;19.100;2023-07-31T06:25:57;98021.78;;;18.74;100.00
33781;BME280;20097;50.832;19.100;2023-07-31T06:31:03;98013.25;;;18.72;100.00
33781;BME280;20097;50.832;19.100;2023-07-31T06:36:08;98023.13;;;18.77;100.00
33781;BME280;20097;50.832;19.100;2023-07-31T06:41:12;98018.72;;;19.05;100.00
33781;BME280;20097;50.832;19.100;2023-07-31T06:46:18;98023.63;;;19.37;100.00
33781;BME280;20097;50.832;19.100;2023-07-31T06:51:22;98019.47;;;19.29;100.00
33781;BME280;20097;50.832;19.100;2023-07-31T06:56:26;98012.22;;;19.36;100.00
33781;BME280;20097;50.832;19.100;2023-07-31T07:01:32;98017.91;;;19.56;100.00
33781;BME280;20097;50.832;19.100;2023-07-31T07:06:36;98028.06;;;19.48;100.00
33781;BME280;20097;50.832;19.100;2023-07-31T07:11:41;98022.81;;;19.81;100.00
33781;BME280;20097;50.832;19.100;2023-07-31T07:16:51;98021.66;;;19.88;100.00
33781;BME280;20097;50.832;19.100;2023-07-31T07:21:55;98024.03;;;19.73;100.00
33781;BME280;20097;50.832;19.100;2023-07-31T07:27:00;98025.31;;;19.87;100.00
33781;BME280;20097;50.832;19.100;2023-07-31T07:32:07;98032.97;;;19.84;100.00
33781;BME280;20097;50.832;19.100;2023-07-31T07:37:11;98039.81;;;19.68;100.00
33781;BME280;20097;50.832;19.100;2023-07-31T07:42:16;98022.75;;;19.48;100.00
33781;BME280;20097;50.832;19.100;2023-07-31T07:47:21;98024.66;;;19.64;99.58
33781;BME280;20097;50.832;19.100;2023-07-31T07:52:25;98027.50;;;19.90;93.94
33781;BME280;20097;50.832;19.100;2023-07-31T07:57:30;98030.19;;;20.23;91.95
33781;BME280;20097;50.832;19.100;2023-07-31T08:02:36;98033.56;;;20.35;81.26
33781;BME280;20097;50.832;19.100;2023-07-31T08:07:40;98024.56;;;20.53;77.76
33781;BME280;20097;50.832;19.100;2023-07-31T08:12:44;98023.38;;;20.99;83.59
33781;BME280;20097;50.832;19.100;2023-07-31T08:17:49;98026.94;;;21.09;76.15
33781;BME280;20097;50.832;19.100;2023-07-31T08:22:54;98020.91;;;21.14;76.18
33781;BME280;20097;50.832;19.100;2023-07-31T08:27:59;98027.63;;;21.43;74.08
33781;BME280;20097;50.832;19.100;2023-07-31T08:33:05;98023.91;;;21.97;72.86
33781;BME280;20097;50.832;19.100;2023-07-31T08:38:09;98022.13;;;22.03;70.59
33781;BME280;20097;50.832;19.100;2023-07-31T08:43:14;98021.22;;;22.24;69.90
33781;BME280;20097;50.832;19.100;2023-07-31T08:48:20;98031.13;;;22.33;68.72
33781;BME280;20097;50.832;19.100;2023-07-31T08:53:26;98033.19;;;22.21;68.23
33781;BME280;20097;50.832;19.100;2023-07-31T08:58:32;98025.25;;;22.31;68.98
33781;BME280;20097;50.832;19.100;2023-07-31T09:03:39;98021.16;;;22.92;67.50
33781;BME280;20097;50.832;19.100;2023-07-31T09:08:44;98026.09;;;22.68;66.21
33781;BME280;20097;50.832;19.100;2023-07-31T09:13:50;98021.69;;;22.89;64.92
33781;BME280;20097;50.832;19.100;2023-07-31T09:18:56;98023.53;;;22.88;63.66
33781;BME280;20097;50.832;19.100;2023-07-31T09:24:01;98019.16;;;23.14;64.00
33781;BME280;20097;50.832;19.100;2023-07-31T09:29:07;98011.13;;;23.04;63.38
33781;BME280;20097;50.832;19.100;2023-07-31T09:34:31;98004.38;;;22.91;64.23
33781;BME280;20097;50.832;19.100;2023-07-31T09:39:48;98005.69;;;23.46;63.95
33781;BME280;20097;50.832;19.100;2023-07-31T09:45:07;98014.22;;;23.48;59.87
33781;BME280;20097;50.832;19.100;2023-07-31T09:50:14;98026.53;;;23.69;61.78
33781;BME280;20097;50.832;19.100;2023-07-31T09:55:19;98012.78;;;23.25;60.32
33781;BME280;20097;50.832;19.100;2023-07-31T10:00:24;98010.19;;;22.83;60.91
33781;BME280;20097;50.832;19.100;2023-07-31T10:05:36;98017.38;;;22.78;60.67
33781;BME280;20097;50.832;19.100;2023-07-31T10:10:43;98001.25;;;22.99;64.82
33781;BME280;20097;50.832;19.100;2023-07-31T10:15:48;97984.22;;;23.05;61.40
33781;BME280;20097;50.832;19.100;2023-07-31T10:20:55;97968.09;;;23.37;61.59
33781;BME280;20097;50.832;19.100;2023-07-31T10:25:59;97978.03;;;23.87;62.27
33781;BME280;20097;50.832;19.100;2023-07-31T10:31:06;97981.78;;;23.96;60.10
33781;BME280;20097;50.832;19.100;2023-07-31T10:36:17;97976.44;;;23.81;56.82
33781;BME280;20097;50.832;19.100;2023-07-31T10:41:29;97973.19;;;23.34;57.04
33781;BME280;20097;50.832;19.100;2023-07-31T10:46:33;97964.63;;;23.32;58.03
33781;BME280;20097;50.832;19.100;2023-07-31T10:51:41;97957.19;;;23.49;55.61
33781;BME280;20097;50.832;19.100;2023-07-31T10:56:46;97947.66;;;23.63;56.63
33781;BME280;20097;50.832;19.100;2023-07-31T11:01:56;97954.88;;;23.87;55.02
33781;BME280;20097;50.832;19.100;2023-07-31T11:07:02;97952.47;;;24.01;53.55
33781;BME280;20097;50.832;19.100;2023-07-31T11:12:11;97942.06;;;24.24;54.74
33781;BME280;20097;50.832;19.100;2023-07-31T11:17:15;97946.75;;;24.73;51.26
33781;BME280;20097;50.832;19.100;2023-07-31T11:22:21;97945.69;;;24.74;50.53
33781;BME280;20097;50.832;19.100;2023-07-31T11:27:27;97935.34;;;24.52;52.27
33781;BME280;20097;50.832;19.100;2023-07-31T11:32:32;97925.91;;;25.33;53.12
33781;BME280;20097;50.832;19.100;2023-07-31T11:37:42;97927.47;;;24.91;52.40
33781;BME280;20097;50.832;19.100;2023-07-31T11:42:46;97917.53;;;25.01;54.10
33781;BME280;20097;50.832;19.100;2023-07-31T11:47:50;97926.56;;;25.10;51.35
33781;BME280;20097;50.832;19.100;2023-07-31T11:53:00;97921.69;;;24.64;51.56
33781;BME280;20097;50.832;19.100;2023-07-31T11:58:07;97909.00;;;24.99;51.24
33781;BME280;20097;50.832;19.100;2023-07-31T12:03:12;97916.56;;;24.82;50.39
33781;BME280;20097;50.832;19.100;2023-07-31T12:08:21;97907.00;;;24.56;50.65
33781;BME280;20097;50.832;19.100;2023-07-31T12:13:26;97903.16;;;24.03;51.16
33781;BME280;20097;50.832;19.100;2023-07-31T12:18:36;97894.88;;;23.70;51.59
33781;BME280;20097;50.832;19.100;2023-07-31T12:23:44;97891.16;;;23.61;52.53
33781;BME280;20097;50.832;19.100;2023-07-31T12:28:50;97882.34;;;23.35;53.49
33781;BME280;20097;50.832;19.100;2023-07-31T12:33:56;97883.88;;;23.16;53.79
33781;BME280;20097;50.832;19.100;2023-07-31T12:39:02;97878.81;;;23.15;54.45
33781;BME280;20097;50.832;19.100;2023-07-31T12:44:07;97867.69;;;23.43;53.86
33781;BME280;20097;50.832;19.100;2023-07-31T12:49:13;97870.38;;;23.58;53.00
33781;BME280;20097;50.832;19.100;2023-07-31T12:54:18;97857.53;;;23.95;52.87
33781;BME280;20097;50.832;19.100;2023-07-31T12:59:23;97860.75;;;23.82;54.41
33781;BME280;20097;50.832;19.100;2023-07-31T13:04:27;97861.56;;;23.52;53.75
33781;BME280;20097;50.832;19.100;2023-07-31T13:09:33;97845.28;;;23.84;55.89
33781;BME280;20097;50.832;19.100;2023-07-31T13:14:37;97849.28;;;23.81;56.42
33781;BME280;20097;50.832;19.100;2023-07-31T13:19:42;97841.59;;;23.50;56.14
33781;BME280;20097;50.832;19.100;2023-07-31T13:24:47;97834.66;;;23.39;57.74
33781;BME280;20097;50.832;19.100;2023-07-31T13:29:52;97838.84;;;23.04;58.86
33781;BME280;20097;50.832;19.100;2023-07-31T13:34:56;97838.84;;;22.89;57.99
33781;BME280;20097;50.832;19.100;2023-07-31T13:40:03;97824.50;;;23.26;59.88
33781;BME280;20097;50.832;19.100;2023-07-31T13:45:08;97833.59;;;23.45;58.09
33781;BME280;20097;50.832;19.100;2023-07-31T13:50:13;97827.19;;;23.71;57.93
33781;BME280;20097;50.832;19.100;2023-07-31T13:55:18;97827.22;;;24.60;57.42
33781;BME280;20097;50.832;19.100;2023-07-31T14:00:23;97842.72;;;25.06;53.98
33781;BME280;20097;50.832;19.100;2023-07-31T14:05:27;97831.97;;;24.78;54.36
33781;BME280;20097;50.832;19.100;2023-07-31T14:10:33;97830.78;;;24.30;55.14
33781;BME280;20097;50.832;19.100;2023-07-31T14:15:37;97826.22;;;24.99;56.45
33781;BME280;20097;50.832;19.100;2023-07-31T14:20:42;97829.69;;;24.95;54.84
33781;BME280;20097;50.832;19.100;2023-07-31T14:25:47;97827.53;;;25.02;54.24
33781;BME280;20097;50.832;19.100;2023-07-31T14:30:52;97819.72;;;25.15;54.04
33781;BME280;20097;50.832;19.100;2023-07-31T14:35:57;97819.63;;;25.25;53.81
33781;BME280;20097;50.832;19.100;2023-07-31T14:41:02;97819.72;;;24.62;53.97
33781;BME280;20097;50.832;19.100;2023-07-31T14:46:07;97819.72;;;24.67;53.98
33781;BME280;20097;50.832;19.100;2023-07-31T14:51:11;97814.28;;;25.88;51.47
33781;BME280;20097;50.832;19.100;2023-07-31T14:56:18;97817.38;;;26.89;50.38
33781;BME280;20097;50.832;19.100;2023-07-31T15:01:24;97828.25;;;26.79;48.93
33781;BME280;20097;50.832;19.100;2023-07-31T15:06:28;97808.16;;;25.87;50.22
33781;BME280;20097;50.832;19.100;2023-07-31T15:11:34;97801.13;;;24.95;52.02
33781;BME280;20097;50.832;19.100;2023-07-31T15:16:38;97816.09;;;26.44;50.18
33781;BME280;20097;50.832;19.100;2023-07-31T15:21:43;97822.47;;;27.09;48.06
33781;BME280;20097;50.832;19.100;2023-07-31T15:26:49;97820.44;;;27.38;48.13
33781;BME280;20097;50.832;19.100;2023-07-31T15:31:53;97817.13;;;27.73;47.43
33781;BME280;20097;50.832;19.100;2023-07-31T15:36:59;97817.59;;;27.62;47.23
33781;BME280;20097;50.832;19.100;2023-07-31T15:42:05;97802.75;;;27.69;47.41
33781;BME280;20097;50.832;19.100;2023-07-31T15:47:12;97804.44;;;27.79;46.64
33781;BME280;20097;50.832;19.100;2023-07-31T15:52:17;97788.00;;;26.84;47.59
33781;BME280;20097;50.832;19.100;2023-07-31T15:57:23;97771.06;;;26.04;51.25
33781;BME280;20097;50.832;19.100;2023-07-31T16:02:30;97748.50;;;25.34;53.22
33781;BME280;20097;50.832;19.100;2023-07-31T16:07:34;97738.91;;;24.95;54.10
33781;BME280;20097;50.832;19.100;2023-07-31T16:12:40;97748.34;;;24.33;54.94
33781;BME280;20097;50.832;19.100;2023-07-31T16:17:44;97745.03;;;23.98;54.69
33781;BME280;20097;50.832;19.100;2023-07-31T16:22:49;97740.84;;;23.62;54.70
33781;BME280;20097;50.832;19.100;2023-07-31T16:27:55;97738.75;;;23.39;55.74
33781;BME280;20097;50.832;19.100;2023-07-31T16:32:59;97738.50;;;23.10;56.46
33781;BME280;20097;50.832;19.100;2023-07-31T16:38:04;97731.56;;;23.19;58.20
33781;BME280;20097;50.832;19.100;2023-07-31T16:43:10;97732.94;;;23.27;58.50
33781;BME280;20097;50.832;19.100;2023-07-31T16:48:15;97714.81;;;23.14;58.82
33781;BME280;20097;50.832;19.100;2023-07-31T16:53:19;97727.84;;;22.90;59.61
33781;BME280;20097;50.832;19.100;2023-07-31T16:58:24;97728.09;;;22.58;60.98
33781;BME280;20097;50.832;19.100;2023-07-31T17:03:28;97737.09;;;22.57;62.68
33781;BME280;20097;50.832;19.100;2023-07-31T17:08:33;97727.22;;;22.48;62.68
33781;BME280;20097;50.832;19.100;2023-07-31T17:13:38;97730.91;;;22.37;64.93
33781;BME280;20097;50.832;19.100;2023-07-31T17:18:42;97734.91;;;22.29;63.95
33781;BME280;20097;50.832;19.100;2023-07-31T17:23:47;97730.84;;;22.12;65.30
33781;BME280;20097;50.832;19.100;2023-07-31T17:28:52;97734.78;;;22.04;67.22
33781;BME280;20097;50.832;19.100;2023-07-31T17:33:57;97739.31;;;21.99;68.59
33781;BME280;20097;50.832;19.100;2023-07-31T17:39:01;97731.53;;;21.82;67.89
33781;BME280;20097;50.832;19.100;2023-07-31T17:44:07;97736.13;;;21.60;68.13
33781;BME280;20097;50.832;19.100;2023-07-31T17:49:12;97738.16;;;21.43;70.36
33781;BME280;20097;50.832;19.100;2023-07-31T17:54:16;97738.28;;;21.21;69.90
33781;BME280;20097;50.832;19.100;2023-07-31T17:59:22;97743.28;;;21.18;69.30
33781;BME280;20097;50.832;19.100;2023-07-31T18:04:26;97744.28;;;21.07;70.41
33781;BME280;20097;50.832;19.100;2023-07-31T18:09:30;97751.56;;;20.95;70.39
33781;BME280;20097;50.832;19.100;2023-07-31T18:14:38;97751.19;;;20.81;72.93
33781;BME280;20097;50.832;19.100;2023-07-31T18:19:43;97756.59;;;20.65;72.51
33781;BME280;20097;50.832;19.100;2023-07-31T18:24:47;97757.31;;;20.33;76.98
33781;BME280;20097;50.832;19.100;2023-07-31T18:29:53;97758.19;;;20.17;78.58
33781;BME280;20097;50.832;19.100;2023-07-31T18:34:57;97763.34;;;20.07;81.41
33781;BME280;20097;50.832;19.100;2023-07-31T18:40:02;97756.50;;;19.90;82.69
33781;BME280;20097;50.832;19.100;2023-07-31T18:45:08;97763.41;;;19.69;86.73
33781;BME280;20097;50.832;19.100;2023-07-31T18:50:12;97760.09;;;19.62;86.06
33781;BME280;20097;50.832;19.100;2023-07-31T18:55:16;97770.78;;;19.51;91.16
33781;BME280;20097;50.832;19.100;2023-07-31T19:00:23;97754.75;;;19.41;93.43
33781;BME280;20097;50.832;19.100;2023-07-31T19:05:27;97763.44;;;19.36;94.88
33781;BME280;20097;50.832;19.100;2023-07-31T19:10:33;97763.59;;;19.30;95.93
33781;BME280;20097;50.832;19.100;2023-07-31T19:15:38;97780.25;;;19.13;98.17
33781;BME280;20097;50.832;19.100;2023-07-31T19:20:43;97767.50;;;18.94;100.00
33781;BME280;20097;50.832;19.100;2023-07-31T19:25:47;97768.91;;;18.68;100.00
33781;BME280;20097;50.832;19.100;2023-07-31T19:30:53;97763.00;;;18.50;100.00
33781;BME280;20097;50.832;19.100;2023-07-31T19:35:59;97757.72;;;18.38;100.00
33781;BME280;20097;50.832;19.100;2023-07-31T19:41:04;97746.63;;;18.25;100.00
33781;BME280;20097;50.832;19.100;2023-07-31T19:46:09;97742.56;;;18.06;100.00
33781;BME280;20097;50.832;19.100;2023-07-31T19:51:13;97748.00;;;17.88;100.00
33781;BME280;20097;50.832;19.100;2023-07-31T19:56:18;97740.66;;;17.78;100.00
33781;BME280;20097;50.832;19.100;2023-07-31T20:01:24;97729.53;;;17.64;100.00
33781;BME280;20097;50.832;19.100;2023-07-31T20:06:28;97737.38;;;17.48;100.00
33781;BME280;20097;50.832;19.100;2023-07-31T20:11:33;97738.38;;;17.35;100.00
33781;BME280;20097;50.832;19.100;2023-07-31T20:16:39;97729.22;;;17.26;100.00
33781;BME280;20097;50.832;19.100;2023-07-31T20:21:44;97723.25;;;17.19;100.00
33781;BME280;20097;50.832;19.100;2023-07-31T20:26:49;97713.25;;;17.10;100.00
33781;BME280;20097;50.832;19.100;2023-07-31T20:31:55;97703.75;;;17.09;100.00
33781;BME280;20097;50.832;19.100;2023-07-31T20:36:59;97694.91;;;17.03;100.00
33781;BME280;20097;50.832;19.100;2023-07-31T20:42:04;97691.81;;;16.95;100.00
33781;BME280;20097;50.832;19.100;2023-07-31T20:47:10;97678.84;;;16.93;100.00
33781;BME280;20097;50.832;19.100;2023-07-31T20:52:15;97670.41;;;16.91;100.00
33781;BME280;20097;50.832;19.100;2023-07-31T20:57:19;97665.00;;;16.98;100.00
33781;BME280;20097;50.832;19.100;2023-07-31T21:02:25;97663.63;;;17.07;100.00
33781;BME280;20097;50.832;19.100;2023-07-31T21:07:29;97657.31;;;17.08;100.00
33781;BME280;20097;50.832;19.100;2023-07-31T21:12:34;97652.63;;;17.10;100.00
33781;BME280;20097;50.832;19.100;2023-07-31T21:17:40;97647.22;;;17.16;100.00
33781;BME280;20097;50.832;19.100;2023-07-31T21:22:44;97640.91;;;17.17;100.00
33781;BME280;20097;50.832;19.100;2023-07-31T21:27:49;97646.19;;;17.17;100.00
33781;BME280;20097;50.832;19.100;2023-07-31T21:32:55;97639.88;;;17.18;100.00
33781;BME280;20097;50.832;19.100;2023-07-31T21:38:00;97628.06;;;17.21;100.00
33781;BME280;20097;50.832;19.100;2023-07-31T21:43:05;97624.66;;;17.20;100.00
33781;BME280;20097;50.832;19.100;2023-07-31T21:48:10;97621.91;;;17.15;100.00
33781;BME280;20097;50.832;19.100;2023-07-31T21:53:15;97609.50;;;17.16;100.00
33781;BME280;20097;50.832;19.100;2023-07-31T21:58:19;97605.03;;;17.16;100.00
33781;BME280;20097;50.832;19.100;2023-07-31T22:03:25;97607.09;;;17.14;100.00
33781;BME280;20097;50.832;19.100;2023-07-31T22:08:29;97593.72;;;17.04;100.00
33781;BME280;20097;50.832;19.100;2023-07-31T22:13:33;97590.03;;;16.94;100.00
33781;BME280;20097;50.832;19.100;2023-07-31T22:18:38;97596.13;;;16.94;100.00
33781;BME280;20097;50.832;19.100;2023-07-31T22:23:43;97595.19;;;16.89;100.00
33781;BME280;20097;50.832;19.100;2023-07-31T22:28:47;97590.84;;;16.83;100.00
33781;BME280;20097;50.832;19.100;2023-07-31T22:33:53;97590.03;;;16.82;100.00
33781;BME280;20097;50.832;19.100;2023-07-31T22:38:58;97580.44;;;16.88;100.00
33781;BME280;20097;50.832;19.100;2023-07-31T22:44:02;97585.13;;;16.86;100.00
33781;BME280;20097;50.832;19.100;2023-07-31T22:49:08;97575.81;;;16.95;100.00
33781;BME280;20097;50.832;19.100;2023-07-31T22:54:13;97579.84;;;16.97;100.00
33781;BME280;20097;50.832;19.100;2023-07-31T22:59:17;97576.50;;;17.02;100.00
33781;BME280;20097;50.832;19.100;2023-07-31T23:04:23;97582.94;;;17.06;100.00
33781;BME280;20097;50.832;19.100;2023-07-31T23:09:27;97578.44;;;17.06;100.00
33781;BME280;20097;50.832;19.100;2023-07-31T23:14:31;97580.28;;;17.06;100.00
33781;BME280;20097;50.832;19.100;2023-07-31T23:19:37;97571.09;;;17.08;100.00
33781;BME280;20097;50.832;19.100;2023-07-31T23:24:41;97554.81;;;17.11;100.00
33781;BME280;20097;50.832;19.100;2023-07-31T23:29:46;97544.59;;;17.15;100.00
33781;BME280;20097;50.832;19.100;2023-07-31T23:34:52;97540.69;;;17.17;100.00
33781;BME280;20097;50.832;19.100;2023-07-31T23:39:56;97537.03;;;17.18;100.00
33781;BME280;20097;50.832;19.100;2023-07-31T23:45:01;97525.91;;;17.16;100.00
33781;BME280;20097;50.832;19.100;2023-07-31T23:50:14;97517.44;;;17.14;100.00
33781;BME280;20097;50.832;19.100;2023-07-31T23:55:19;97504.47;;;17.13;100.00
